HISTORICAL SENSOR DATA

Sensor Data Report

DB LIVE
CURRENT TIME--:--:--
DEVICE NETWORK Gateway Status
13 ESP · realtime ~1s · history 60s
Weather WS-MOD-01
ONLINE
Actuator ACT-MOD-01
OFFLINE
Mainboard L3 MB-L3-01
ONLINE
Mainboard L5 MB-L5-01
ONLINE
Remote AC AC-REMOTE-01
ONLINE
PZEM L3-01 PWR-L3-01
OFFLINE
PZEM L3-02 PWR-L3-02
OFFLINE
PZEM L3-03 PWR-L3-03
OFFLINE
PZEM L3-04 PWR-L3-04
OFFLINE
PZEM L5-01 PWR-L5-01
ONLINE
PZEM L5-02 PWR-L5-02
ONLINE
PZEM L5-03 PWR-L5-03
OFFLINE
PZEM L5-04 PWR-L5-04
OFFLINE
REPORT FILTER

Periode & Sensor

DATABASE HISTORY
RESET
QUICK RANGE Hari ini 7 hari 30 hari
PERIODE02 Sep 2026sampai 02 Sep 2026
TOTAL DATA40,278sensor readings
MINIMUM-0.50sesuai filter
AVERAGE56.78sesuai filter
MAXIMUM998.00sesuai filter
REPORT RESULT

Data Sensor

02/09/2026 — 02/09/2026 EXPORT CSV
NOTANGGALWAKTUDEVICECHANNELSENSORVALUEUNIT
12201 02/09/2026 14:54:31 MB-L5-01Mainboard Lantai 5 L5-AI-02 Analog Input 2 3.05 V
12202 02/09/2026 14:54:31 MB-L3-01Mainboard Lantai 3 L3-BGT-03 Black Globe Temperature 3 29.30 °C
12203 02/09/2026 14:54:31 MB-L3-01Mainboard Lantai 3 L3-ST-02 Surface Temperature 2 30.20 °C
12204 02/09/2026 14:54:31 MB-L5-01Mainboard Lantai 5 L5-AI-01 Analog Input 1 3.05 V
12205 02/09/2026 14:54:31 MB-L5-01Mainboard Lantai 5 L5-LUX-05 Illuminance / LUX 5 532.00 lux
12206 02/09/2026 14:54:31 MB-L3-01Mainboard Lantai 3 L3-AI-06 Analog Input 6 3.12 V
12207 02/09/2026 14:54:31 MB-L3-01Mainboard Lantai 3 L3-LUX-06 Illuminance / LUX 6 33.70 lux
12208 02/09/2026 14:54:31 MB-L3-01Mainboard Lantai 3 L3-AI-01 Analog Input 1 3.12 V
12209 02/09/2026 14:54:31 MB-L5-01Mainboard Lantai 5 L5-BGT-03 Black Globe Temperature 3 29.90 °C
12210 02/09/2026 14:54:31 MB-L3-01Mainboard Lantai 3 L3-HFT-01 Heat Flow Temperature 1 29.70 °C
12211 02/09/2026 14:54:31 MB-L5-01Mainboard Lantai 5 L5-LUX-03 Illuminance / LUX 3 207.70 lux
12212 02/09/2026 14:54:31 MB-L5-01Mainboard Lantai 5 L5-BGT-02 Black Globe Temperature 2 29.90 °C
12213 02/09/2026 14:54:31 MB-L5-01Mainboard Lantai 5 L5-BGT-01 Black Globe Temperature 1 29.90 °C
12214 02/09/2026 14:54:31 MB-L3-01Mainboard Lantai 3 L3-AI-02 Analog Input 2 3.12 V
12215 02/09/2026 14:54:31 MB-L3-01Mainboard Lantai 3 L3-LUX-04 Illuminance / LUX 4 78.80 lux
12216 02/09/2026 14:54:31 MB-L5-01Mainboard Lantai 5 L5-HFT-02 Heat Flow Temperature 2 30.20 °C
12217 02/09/2026 14:54:31 MB-L5-01Mainboard Lantai 5 L5-SHT-01-RH SHT20 1 Humidity 48.40 %RH
12218 02/09/2026 14:54:31 MB-L3-01Mainboard Lantai 3 L3-HFT-02 Heat Flow Temperature 2 29.20 °C
12219 02/09/2026 14:54:31 MB-L3-01Mainboard Lantai 3 L3-SHT-01-T SHT20 1 Temperature 32.20 °C
12220 02/09/2026 14:54:31 MB-L5-01Mainboard Lantai 5 L5-HFT-01 Heat Flow Temperature 1 30.40 °C
12221 02/09/2026 14:54:31 MB-L5-01Mainboard Lantai 5 L5-LUX-01 Illuminance / LUX 1 269.10 lux
12222 02/09/2026 14:54:31 MB-L5-01Mainboard Lantai 5 L5-LUX-06 Illuminance / LUX 6 288.90 lux
12223 02/09/2026 14:54:31 MB-L5-01Mainboard Lantai 5 L5-ST-02 Surface Temperature 2 30.50 °C
12224 02/09/2026 14:54:31 MB-L3-01Mainboard Lantai 3 L3-LUX-02 Illuminance / LUX 2 38.60 lux
12225 02/09/2026 14:54:31 MB-L3-01Mainboard Lantai 3 L3-SHT-01-RH SHT20 1 Humidity 48.70 %RH
12226 02/09/2026 14:54:31 MB-L3-01Mainboard Lantai 3 L3-AI-03 Analog Input 3 3.12 V
12227 02/09/2026 14:54:31 MB-L5-01Mainboard Lantai 5 L5-LUX-02 Illuminance / LUX 2 192.60 lux
12228 02/09/2026 14:54:31 MB-L5-01Mainboard Lantai 5 L5-ST-01 Surface Temperature 1 30.30 °C
12229 02/09/2026 14:54:31 MB-L3-01Mainboard Lantai 3 L3-SHT-02-RH SHT20 2 Humidity 48.40 %RH
12230 02/09/2026 14:54:31 MB-L3-01Mainboard Lantai 3 L3-BGT-01 Black Globe Temperature 1 29.70 °C
12231 02/09/2026 14:54:31 MB-L5-01Mainboard Lantai 5 L5-RAD-02 Radiation 2 2.00 W/m²
12232 02/09/2026 14:54:31 MB-L3-01Mainboard Lantai 3 L3-LUX-01 Illuminance / LUX 1 29.20 lux
12233 02/09/2026 14:54:31 MB-L3-01Mainboard Lantai 3 L3-RAD-02 Radiation 2 2.00 W/m²
12234 02/09/2026 14:54:31 MB-L3-01Mainboard Lantai 3 L3-LUX-05 Illuminance / LUX 5 47.20 lux
12235 02/09/2026 14:54:31 MB-L5-01Mainboard Lantai 5 L5-AI-06 Analog Input 6 3.05 V
12236 02/09/2026 14:54:31 MB-L3-01Mainboard Lantai 3 L3-LUX-03 Illuminance / LUX 3 140.20 lux
12237 02/09/2026 14:54:31 MB-L5-01Mainboard Lantai 5 L5-SHT-02-RH SHT20 2 Humidity 48.40 %RH
12238 02/09/2026 14:54:31 MB-L3-01Mainboard Lantai 3 L3-AI-04 Analog Input 4 3.12 V
12239 02/09/2026 14:54:29 MB-L5-01Mainboard Lantai 5 L5-AI-02 Analog Input 2 3.05 V
12240 02/09/2026 14:54:29 MB-L3-01Mainboard Lantai 3 L3-BGT-03 Black Globe Temperature 3 29.40 °C
12241 02/09/2026 14:54:29 MB-L3-01Mainboard Lantai 3 L3-ST-02 Surface Temperature 2 30.20 °C
12242 02/09/2026 14:54:29 MB-L5-01Mainboard Lantai 5 L5-AI-01 Analog Input 1 3.05 V
12243 02/09/2026 14:54:29 MB-L5-01Mainboard Lantai 5 L5-LUX-05 Illuminance / LUX 5 664.90 lux
12244 02/09/2026 14:54:29 MB-L3-01Mainboard Lantai 3 L3-AI-06 Analog Input 6 3.12 V
12245 02/09/2026 14:54:29 MB-L3-01Mainboard Lantai 3 L3-LUX-06 Illuminance / LUX 6 42.30 lux
12246 02/09/2026 14:54:29 MB-L3-01Mainboard Lantai 3 L3-AI-01 Analog Input 1 3.12 V
12247 02/09/2026 14:54:29 MB-L5-01Mainboard Lantai 5 L5-BGT-03 Black Globe Temperature 3 30.00 °C
12248 02/09/2026 14:54:29 MB-L3-01Mainboard Lantai 3 L3-HFT-01 Heat Flow Temperature 1 29.70 °C
12249 02/09/2026 14:54:29 MB-L5-01Mainboard Lantai 5 L5-LUX-03 Illuminance / LUX 3 234.60 lux
12250 02/09/2026 14:54:29 MB-L5-01Mainboard Lantai 5 L5-BGT-02 Black Globe Temperature 2 29.90 °C
12251 02/09/2026 14:54:29 MB-L5-01Mainboard Lantai 5 L5-BGT-01 Black Globe Temperature 1 29.90 °C
12252 02/09/2026 14:54:29 MB-L3-01Mainboard Lantai 3 L3-AI-02 Analog Input 2 3.12 V
12253 02/09/2026 14:54:29 MB-L3-01Mainboard Lantai 3 L3-LUX-04 Illuminance / LUX 4 82.10 lux
12254 02/09/2026 14:54:29 MB-L5-01Mainboard Lantai 5 L5-HFT-02 Heat Flow Temperature 2 30.10 °C
12255 02/09/2026 14:54:29 MB-L5-01Mainboard Lantai 5 L5-SHT-01-RH SHT20 1 Humidity 48.30 %RH
12256 02/09/2026 14:54:29 MB-L3-01Mainboard Lantai 3 L3-HFT-02 Heat Flow Temperature 2 29.20 °C
12257 02/09/2026 14:54:29 MB-L3-01Mainboard Lantai 3 L3-SHT-01-T SHT20 1 Temperature 32.10 °C
12258 02/09/2026 14:54:29 MB-L5-01Mainboard Lantai 5 L5-HFT-01 Heat Flow Temperature 1 30.30 °C
12259 02/09/2026 14:54:29 MB-L5-01Mainboard Lantai 5 L5-LUX-01 Illuminance / LUX 1 291.50 lux
12260 02/09/2026 14:54:29 MB-L5-01Mainboard Lantai 5 L5-LUX-06 Illuminance / LUX 6 341.90 lux
12261 02/09/2026 14:54:29 MB-L5-01Mainboard Lantai 5 L5-ST-02 Surface Temperature 2 30.60 °C
12262 02/09/2026 14:54:29 MB-L3-01Mainboard Lantai 3 L3-LUX-02 Illuminance / LUX 2 45.20 lux
12263 02/09/2026 14:54:29 MB-L3-01Mainboard Lantai 3 L3-SHT-01-RH SHT20 1 Humidity 48.80 %RH
12264 02/09/2026 14:54:29 MB-L3-01Mainboard Lantai 3 L3-AI-03 Analog Input 3 3.12 V
12265 02/09/2026 14:54:29 MB-L5-01Mainboard Lantai 5 L5-LUX-02 Illuminance / LUX 2 235.10 lux
12266 02/09/2026 14:54:29 MB-L5-01Mainboard Lantai 5 L5-ST-01 Surface Temperature 1 30.40 °C
12267 02/09/2026 14:54:29 MB-L3-01Mainboard Lantai 3 L3-SHT-02-RH SHT20 2 Humidity 48.50 %RH
12268 02/09/2026 14:54:29 MB-L3-01Mainboard Lantai 3 L3-BGT-01 Black Globe Temperature 1 29.70 °C
12269 02/09/2026 14:54:29 MB-L5-01Mainboard Lantai 5 L5-RAD-02 Radiation 2 2.00 W/m²
12270 02/09/2026 14:54:29 MB-L3-01Mainboard Lantai 3 L3-LUX-01 Illuminance / LUX 1 27.80 lux
12271 02/09/2026 14:54:29 MB-L3-01Mainboard Lantai 3 L3-RAD-02 Radiation 2 2.00 W/m²
12272 02/09/2026 14:54:29 MB-L5-01Mainboard Lantai 5 L5-AI-06 Analog Input 6 3.05 V
12273 02/09/2026 14:54:29 MB-L3-01Mainboard Lantai 3 L3-LUX-03 Illuminance / LUX 3 165.50 lux
12274 02/09/2026 14:54:29 MB-L5-01Mainboard Lantai 5 L5-SHT-02-RH SHT20 2 Humidity 48.60 %RH
12275 02/09/2026 14:54:29 MB-L3-01Mainboard Lantai 3 L3-AI-04 Analog Input 4 3.12 V
12276 02/09/2026 14:54:29 MB-L5-01Mainboard Lantai 5 L5-LUX-04 Illuminance / LUX 4 344.70 lux
12277 02/09/2026 14:54:29 MB-L3-01Mainboard Lantai 3 L3-BGT-02 Black Globe Temperature 2 29.80 °C
12278 02/09/2026 14:54:29 MB-L3-01Mainboard Lantai 3 L3-RAD-01 Radiation 1 2.00 W/m²
12279 02/09/2026 14:54:29 MB-L5-01Mainboard Lantai 5 L5-AI-05 Analog Input 5 3.05 V
12280 02/09/2026 14:54:29 MB-L5-01Mainboard Lantai 5 L5-SHT-03-T SHT20 3 Temperature 32.20 °C
12281 02/09/2026 14:54:29 MB-L5-01Mainboard Lantai 5 L5-SHT-01-T SHT20 1 Temperature 32.30 °C
12282 02/09/2026 14:54:29 MB-L3-01Mainboard Lantai 3 L3-SHT-03-RH SHT20 3 Humidity 49.00 %RH
12283 02/09/2026 14:54:29 MB-L5-01Mainboard Lantai 5 L5-SHT-02-T SHT20 2 Temperature 32.30 °C
12284 02/09/2026 14:54:29 MB-L5-01Mainboard Lantai 5 L5-SHT-03-RH SHT20 3 Humidity 48.90 %RH
12285 02/09/2026 14:54:29 MB-L5-01Mainboard Lantai 5 L5-AI-04 Analog Input 4 3.05 V
12286 02/09/2026 14:54:29 MB-L3-01Mainboard Lantai 3 L3-ST-01 Surface Temperature 1 29.90 °C
12287 02/09/2026 14:54:29 MB-L3-01Mainboard Lantai 3 L3-AI-05 Analog Input 5 3.12 V
12288 02/09/2026 14:54:29 MB-L3-01Mainboard Lantai 3 L3-SHT-03-T SHT20 3 Temperature 31.80 °C
12289 02/09/2026 14:54:29 MB-L5-01Mainboard Lantai 5 L5-RAD-01 Radiation 1 2.00 W/m²
12290 02/09/2026 14:54:29 MB-L5-01Mainboard Lantai 5 L5-AI-03 Analog Input 3 3.05 V
12291 02/09/2026 14:54:29 MB-L3-01Mainboard Lantai 3 L3-SHT-02-T SHT20 2 Temperature 32.00 °C
12292 02/09/2026 14:54:27 MB-L5-01Mainboard Lantai 5 L5-BGT-03 Black Globe Temperature 3 30.00 °C
12293 02/09/2026 14:54:27 MB-L3-01Mainboard Lantai 3 L3-HFT-01 Heat Flow Temperature 1 29.70 °C
12294 02/09/2026 14:54:27 MB-L5-01Mainboard Lantai 5 L5-LUX-03 Illuminance / LUX 3 235.40 lux
12295 02/09/2026 14:54:27 MB-L5-01Mainboard Lantai 5 L5-BGT-02 Black Globe Temperature 2 29.90 °C
12296 02/09/2026 14:54:27 MB-L5-01Mainboard Lantai 5 L5-BGT-01 Black Globe Temperature 1 29.90 °C
12297 02/09/2026 14:54:27 MB-L3-01Mainboard Lantai 3 L3-AI-02 Analog Input 2 3.12 V
12298 02/09/2026 14:54:27 MB-L3-01Mainboard Lantai 3 L3-LUX-04 Illuminance / LUX 4 87.30 lux
12299 02/09/2026 14:54:27 MB-L5-01Mainboard Lantai 5 L5-HFT-02 Heat Flow Temperature 2 30.20 °C
12300 02/09/2026 14:54:27 MB-L5-01Mainboard Lantai 5 L5-SHT-01-RH SHT20 1 Humidity 48.30 %RH
Menampilkan maksimal 100 data per halaman